Huntsville, Alabama
Current Conditions -  °F | °C
As of 8:53 PM on Monday 22 Dec 2014 (Local Time) from KHSV Reporting Station
Overcast Overcast  
Wind Chill: 52°   Ceiling: 1000
Heat Index: 52°   Visibility: 3mi
Dew Point: 48°   Wind: 12mph
Humidity: 86%   Direction: 150°SSE
Pressure: 29.78"   Gusts: NA
Location:  34.73°N, 86.58°W
Report Text: KHSV 230253Z 15010KT 3SM OVC010 11/09 A2978 RMK AO2 SFC VIS 8 SLP082 60005 T01110089 50008
Loading
Personal Weather Stations






























Interactive Weather Map New forecast layout! Learn more

10-Day Weather Forecast

Advertisements
Track Severe Weather on mobile